SWA2088 KMCO-KATL
Flight info
| Callsign | SWA2088 |
|---|---|
| Flight time | N/A |
| Altitude | 36000 |
| Route | JEEMY4 PAINN SHRKS LAIRI LARZZ JJEDI4 |
| Aircraft | B737/M-SADE2E3GIJ4RWZ/LB1D1 |
Departure
| Time | 2026-04-26 16:03 |
|---|---|
| Airport | Orlando International Airport (KMCO) |
Arrival
| Time | N/A |
|---|---|
| Airport | Hartsfield Jackson Atlanta International Airport (KATL) |
| Time | Latitude | Longitude | Altitude | Speed | Heading |
|---|---|---|---|---|---|
| 2026-04-26 15:40 | 28.43605 | -81.30286 | 100 ft | 0 kts | 166° |
| 2026-04-26 15:56 | 28.43612 | -81.30288 | 99 ft | 4 kts | 165° |
| 2026-04-26 15:56 | 28.43637 | -81.30298 | 98 ft | 4 kts | 156° |
| 2026-04-26 15:56 | 28.43661 | -81.30312 | 100 ft | 4 kts | 135° |
| 2026-04-26 15:56 | 28.43672 | -81.30332 | 100 ft | 4 kts | 67° |
| 2026-04-26 15:57 | 28.43667 | -81.30341 | 100 ft | 1 kts | 52° |
| 2026-04-26 15:59 | 28.43673 | -81.30333 | 100 ft | 3 kts | 52° |
| 2026-04-26 15:59 | 28.43702 | -81.30298 | 100 ft | 9 kts | 37° |
| 2026-04-26 15:59 | 28.43764 | -81.30262 | 100 ft | 10 kts | 20° |
| 2026-04-26 15:59 | 28.43835 | -81.30256 | 99 ft | 10 kts | 0° |
| 2026-04-26 16:00 | 28.43901 | -81.30242 | 100 ft | 10 kts | 41° |
| 2026-04-26 16:00 | 28.43906 | -81.30167 | 101 ft | 10 kts | 94° |
| 2026-04-26 16:00 | 28.43901 | -81.30083 | 102 ft | 12 kts | 92° |
| 2026-04-26 16:00 | 28.43897 | -81.29977 | 103 ft | 15 kts | 93° |
| 2026-04-26 16:01 | 28.43844 | -81.29884 | 102 ft | 14 kts | 132° |
| 2026-04-26 16:01 | 28.43757 | -81.29818 | 102 ft | 16 kts | 158° |
| 2026-04-26 16:01 | 28.43628 | -81.29801 | 103 ft | 20 kts | 178° |
| 2026-04-26 16:01 | 28.43549 | -81.29756 | 101 ft | 12 kts | 99° |
| 2026-04-26 16:02 | 28.43549 | -81.29685 | 102 ft | 6 kts | 89° |
| 2026-04-26 16:02 | 28.43550 | -81.29639 | 103 ft | 6 kts | 89° |
| 2026-04-26 16:02 | 28.43543 | -81.29594 | 103 ft | 6 kts | 128° |
| 2026-04-26 16:02 | 28.43496 | -81.29588 | 103 ft | 19 kts | 181° |
| 2026-04-26 16:03 | 28.42903 | -81.29584 | 105 ft | 112 kts | 180° |
| 2026-04-26 16:03 | 28.41926 | -81.29583 | 165 ft | 162 kts | 180° |
| 2026-04-26 16:03 | 28.40728 | -81.29540 | 631 ft | 185 kts | 179° |
| 2026-04-26 16:03 | 28.39373 | -81.29474 | 1224 ft | 201 kts | 179° |
| 2026-04-26 16:04 | 28.37969 | -81.29336 | 1943 ft | 208 kts | 171° |
| 2026-04-26 16:04 | 28.36584 | -81.28556 | 2297 ft | 239 kts | 144° |
| 2026-04-26 16:04 | 28.35193 | -81.27368 | 2681 ft | 261 kts | 146° |
| 2026-04-26 16:04 | 28.33760 | -81.26046 | 3518 ft | 268 kts | 138° |
| 2026-04-26 16:05 | 28.32420 | -81.24565 | 4469 ft | 270 kts | 137° |
| 2026-04-26 16:05 | 28.31293 | -81.22851 | 5317 ft | 280 kts | 117° |
| 2026-04-26 16:05 | 28.30771 | -81.20714 | 6455 ft | 287 kts | 97° |
| 2026-04-26 16:05 | 28.30808 | -81.18399 | 6863 ft | 292 kts | 85° |
| 2026-04-26 16:06 | 28.31043 | -81.16093 | 6998 ft | 296 kts | 83° |
| 2026-04-26 16:06 | 28.31300 | -81.13818 | 7002 ft | 296 kts | 83° |
| 2026-04-26 16:06 | 28.31565 | -81.11491 | 6998 ft | 294 kts | 83° |
| 2026-04-26 16:06 | 28.31833 | -81.09195 | 7000 ft | 293 kts | 83° |
| 2026-04-26 16:07 | 28.32103 | -81.06904 | 7011 ft | 291 kts | 83° |
| 2026-04-26 16:07 | 28.32372 | -81.04635 | 7019 ft | 290 kts | 82° |
| 2026-04-26 16:07 | 28.33031 | -81.02457 | 7254 ft | 299 kts | 54° |
| 2026-04-26 16:07 | 28.34532 | -81.00854 | 8397 ft | 297 kts | 29° |
| 2026-04-26 16:08 | 28.36463 | -81.00094 | 9507 ft | 295 kts | 3° |
| 2026-04-26 16:08 | 28.37816 | -81.00171 | 10197 ft | 295 kts | 345° |
| 2026-04-26 16:08 | 28.40403 | -81.01469 | 10910 ft | 322 kts | 327° |
| 2026-04-26 16:08 | 28.42389 | -81.02876 | 11220 ft | 348 kts | 325° |
| 2026-04-26 16:09 | 28.44448 | -81.04407 | 11978 ft | 357 kts | 324° |
| 2026-04-26 16:09 | 28.46528 | -81.05960 | 12966 ft | 359 kts | 325° |
| 2026-04-26 16:09 | 28.48632 | -81.07518 | 13877 ft | 362 kts | 325° |
| 2026-04-26 16:09 | 28.50762 | -81.09078 | 14804 ft | 365 kts | 326° |
| 2026-04-26 16:10 | 28.52912 | -81.10642 | 15572 ft | 368 kts | 326° |
| 2026-04-26 16:10 | 28.55090 | -81.12219 | 16360 ft | 373 kts | 326° |
| 2026-04-26 16:10 | 28.57291 | -81.13808 | 17195 ft | 376 kts | 326° |
| 2026-04-26 16:10 | 28.59504 | -81.15405 | 18008 ft | 379 kts | 326° |
| 2026-04-26 16:11 | 28.61742 | -81.17019 | 18770 ft | 382 kts | 326° |
| 2026-04-26 16:11 | 28.64005 | -81.18653 | 19469 ft | 387 kts | 326° |
| 2026-04-26 16:11 | 28.66261 | -81.20281 | 20138 ft | 391 kts | 326° |
| 2026-04-26 16:11 | 28.68569 | -81.21948 | 20828 ft | 394 kts | 326° |
| 2026-04-26 16:12 | 28.70891 | -81.23625 | 21508 ft | 396 kts | 326° |
| 2026-04-26 16:12 | 28.73228 | -81.25314 | 22133 ft | 400 kts | 326° |
| 2026-04-26 16:12 | 28.77976 | -81.28751 | 23268 ft | 407 kts | 326° |
| 2026-04-26 16:13 | 28.80374 | -81.30488 | 23846 ft | 410 kts | 326° |
| 2026-04-26 16:13 | 28.82788 | -81.32237 | 24392 ft | 413 kts | 326° |
| 2026-04-26 16:13 | 28.85223 | -81.34003 | 24914 ft | 416 kts | 326° |
| 2026-04-26 16:13 | 28.87669 | -81.35779 | 25498 ft | 417 kts | 326° |
| 2026-04-26 16:14 | 28.90126 | -81.37563 | 26030 ft | 419 kts | 326° |
| 2026-04-26 16:14 | 28.92614 | -81.39315 | 26522 ft | 422 kts | 330° |
| 2026-04-26 16:14 | 28.98176 | -81.41608 | 27491 ft | 430 kts | 346° |
| 2026-04-26 16:15 | 29.01157 | -81.42060 | 27988 ft | 434 kts | 352° |
| 2026-04-26 16:15 | 29.04174 | -81.42338 | 28452 ft | 435 kts | 353° |
| 2026-04-26 16:15 | 29.07202 | -81.42623 | 28887 ft | 437 kts | 352° |
| 2026-04-26 16:16 | 29.13242 | -81.43243 | 29733 ft | 439 kts | 352° |
| 2026-04-26 16:16 | 29.16273 | -81.43531 | 30400 ft | 434 kts | 352° |
| 2026-04-26 16:16 | 29.19270 | -81.43809 | 31083 ft | 430 kts | 352° |
| 2026-04-26 16:16 | 29.22244 | -81.44086 | 31582 ft | 429 kts | 352° |
| 2026-04-26 16:17 | 29.25220 | -81.44364 | 32039 ft | 428 kts | 352° |
| 2026-04-26 16:17 | 29.28189 | -81.44645 | 32532 ft | 426 kts | 351° |
| 2026-04-26 16:17 | 29.30141 | -81.44829 | 32901 ft | 424 kts | 351° |
| 2026-04-26 16:17 | 29.33069 | -81.45107 | 33404 ft | 421 kts | 351° |
| 2026-04-26 16:18 | 29.35981 | -81.45385 | 33840 ft | 420 kts | 350° |
| 2026-04-26 16:18 | 29.41779 | -81.45937 | 34740 ft | 416 kts | 350° |
| 2026-04-26 16:19 | 29.47520 | -81.46488 | 35424 ft | 416 kts | 350° |
| 2026-04-26 16:19 | 29.50394 | -81.46763 | 35797 ft | 414 kts | 350° |
| 2026-04-26 16:19 | 29.56182 | -81.47319 | 35968 ft | 420 kts | 350° |
| 2026-04-26 16:20 | 29.59090 | -81.47593 | 35965 ft | 418 kts | 350° |
| 2026-04-26 16:20 | 29.67682 | -81.48365 | 35976 ft | 410 kts | 350° |
| 2026-04-26 16:21 | 29.73366 | -81.48879 | 35975 ft | 410 kts | 350° |
| 2026-04-26 16:21 | 29.79043 | -81.49395 | 35982 ft | 409 kts | 350° |
| 2026-04-26 16:22 | 29.84718 | -81.49910 | 35982 ft | 409 kts | 350° |
| 2026-04-26 16:22 | 29.90342 | -81.50718 | 35980 ft | 403 kts | 340° |
| 2026-04-26 16:23 | 29.95680 | -81.52613 | 35976 ft | 401 kts | 339° |
| 2026-04-26 16:23 | 30.01004 | -81.54555 | 35984 ft | 401 kts | 339° |
| 2026-04-26 16:24 | 30.06336 | -81.56477 | 35981 ft | 401 kts | 339° |
| 2026-04-26 16:24 | 30.11636 | -81.58375 | 35982 ft | 401 kts | 339° |
| 2026-04-26 16:25 | 30.16975 | -81.60286 | 35985 ft | 402 kts | 339° |
| 2026-04-26 16:25 | 30.22313 | -81.62199 | 35980 ft | 401 kts | 339° |
| 2026-04-26 16:26 | 30.27644 | -81.64111 | 35984 ft | 401 kts | 339° |
| 2026-04-26 16:26 | 30.32977 | -81.66027 | 35980 ft | 401 kts | 339° |
| 2026-04-26 16:27 | 30.38315 | -81.67946 | 35887 ft | 403 kts | 339° |
| 2026-04-26 16:27 | 30.40995 | -81.68911 | 35609 ft | 401 kts | 339° |
| 2026-04-26 16:27 | 30.43650 | -81.69866 | 35366 ft | 399 kts | 338° |
| 2026-04-26 16:28 | 30.46304 | -81.70823 | 35119 ft | 399 kts | 338° |
| 2026-04-26 16:28 | 30.48957 | -81.71780 | 35006 ft | 399 kts | 338° |
| 2026-04-26 16:28 | 30.54306 | -81.73712 | 34962 ft | 403 kts | 338° |
| 2026-04-26 16:29 | 30.59642 | -81.75637 | 34949 ft | 400 kts | 338° |
| 2026-04-26 16:29 | 30.64767 | -81.77945 | 34959 ft | 395 kts | 330° |
| 2026-04-26 16:30 | 30.69677 | -81.80808 | 34958 ft | 395 kts | 330° |
| 2026-04-26 16:30 | 30.74586 | -81.83680 | 34952 ft | 395 kts | 330° |
| 2026-04-26 16:31 | 30.79503 | -81.86542 | 34953 ft | 395 kts | 330° |
| 2026-04-26 16:31 | 30.84428 | -81.89402 | 34955 ft | 396 kts | 330° |
| 2026-04-26 16:32 | 30.88530 | -81.91785 | 34953 ft | 396 kts | 330° |
| 2026-04-26 16:32 | 30.94305 | -81.95142 | 34952 ft | 397 kts | 329° |
| 2026-04-26 16:33 | 30.99258 | -81.98025 | 34959 ft | 398 kts | 329° |
| 2026-04-26 16:33 | 31.04209 | -82.00910 | 34962 ft | 398 kts | 329° |
| 2026-04-26 16:34 | 31.09167 | -82.03802 | 34965 ft | 398 kts | 329° |
| 2026-04-26 16:34 | 31.14130 | -82.06700 | 34972 ft | 399 kts | 329° |
| 2026-04-26 16:35 | 31.19058 | -82.09580 | 34970 ft | 399 kts | 329° |
| 2026-04-26 16:35 | 31.24028 | -82.12490 | 34963 ft | 400 kts | 329° |
| 2026-04-26 16:36 | 31.28997 | -82.15404 | 34963 ft | 400 kts | 329° |
| 2026-04-26 16:36 | 31.33972 | -82.18323 | 34964 ft | 400 kts | 329° |
| 2026-04-26 16:37 | 31.38949 | -82.21247 | 34963 ft | 400 kts | 329° |
| 2026-04-26 16:37 | 31.43092 | -82.23683 | 34963 ft | 400 kts | 329° |